createdAt,value
2023-05-05T00:01:39.386Z,19.45
2023-05-05T00:04:11.825Z,19.45
2023-05-05T00:06:44.266Z,19.45
2023-05-05T00:09:16.649Z,19.43
2023-05-05T00:11:49.086Z,19.44
2023-05-05T00:14:21.458Z,19.43
2023-05-05T00:16:53.912Z,19.43
2023-05-05T00:19:26.291Z,19.42
2023-05-05T00:21:58.603Z,19.42
2023-05-05T00:24:30.984Z,19.42
2023-05-05T00:27:04.018Z,19.42
2023-05-05T00:29:36.442Z,19.40
2023-05-05T00:32:09.362Z,19.39
2023-05-05T00:34:41.776Z,19.38
2023-05-05T00:37:14.219Z,19.38
2023-05-05T00:39:46.556Z,19.38
2023-05-05T00:42:19.196Z,19.38
2023-05-05T00:44:51.530Z,19.38
2023-05-05T00:47:24.183Z,19.38
2023-05-05T00:49:56.684Z,19.39
2023-05-05T00:52:29.301Z,19.37
2023-05-05T00:55:02.292Z,19.36
2023-05-05T00:57:35.997Z,19.36
2023-05-05T01:00:10.004Z,19.36
2023-05-05T01:02:42.783Z,19.35
2023-05-05T01:05:17.608Z,19.34
2023-05-05T01:08:02.993Z,19.34
2023-05-05T01:10:41.068Z,19.34
2023-05-05T01:13:37.576Z,19.34
2023-05-05T01:16:18.527Z,19.32
2023-05-05T01:19:05.261Z,19.32
2023-05-05T01:21:42.541Z,19.31
2023-05-05T01:24:21.089Z,19.31
2023-05-05T01:27:09.404Z,19.31
2023-05-05T01:30:20.646Z,19.30
2023-05-05T01:33:00.900Z,19.29
2023-05-05T01:35:56.735Z,19.28
2023-05-05T01:38:38.065Z,19.27
2023-05-05T01:41:18.331Z,19.28
2023-05-05T01:43:53.352Z,19.27
2023-05-05T01:46:27.131Z,19.26
2023-05-05T01:49:00.057Z,19.26
2023-05-05T01:51:33.132Z,19.26
2023-05-05T01:54:10.416Z,19.25
2023-05-05T01:56:43.976Z,19.24
2023-05-05T01:59:17.876Z,19.24
2023-05-05T02:01:52.170Z,19.24
2023-05-05T02:04:27.405Z,19.24
2023-05-05T02:07:02.190Z,19.24
2023-05-05T02:09:36.356Z,19.24
2023-05-05T02:12:10.400Z,19.23
2023-05-05T02:14:44.256Z,19.24
2023-05-05T02:17:22.105Z,19.23
2023-05-05T02:19:56.004Z,19.22
2023-05-05T02:22:28.640Z,19.22
2023-05-05T02:25:01.108Z,19.21
2023-05-05T02:27:35.792Z,19.21
2023-05-05T02:30:13.864Z,19.20
2023-05-05T02:33:00.158Z,19.20
2023-05-05T02:35:39.202Z,19.19
2023-05-05T02:38:17.424Z,19.19
2023-05-05T02:40:55.955Z,19.19
2023-05-05T02:43:31.633Z,19.17
2023-05-05T02:46:04.437Z,19.16
2023-05-05T02:48:38.158Z,19.17
2023-05-05T02:51:10.528Z,19.15
2023-05-05T02:53:43.423Z,19.17
2023-05-05T02:56:42.808Z,19.16
2023-05-05T02:59:33.750Z,19.15
2023-05-05T03:02:32.374Z,19.14
2023-05-05T03:05:11.078Z,19.13
2023-05-05T03:08:08.516Z,19.12
2023-05-05T03:10:57.614Z,19.12
2023-05-05T03:13:31.436Z,19.12
2023-05-05T03:16:06.951Z,19.12
2023-05-05T03:18:42.473Z,19.11
2023-05-05T03:21:15.252Z,19.11
2023-05-05T03:23:48.869Z,19.10
2023-05-05T03:26:25.559Z,19.10
2023-05-05T03:28:57.848Z,19.09
2023-05-05T03:31:34.513Z,19.09
2023-05-05T03:34:08.341Z,19.08
2023-05-05T03:36:47.439Z,19.07
2023-05-05T03:39:21.453Z,19.06
2023-05-05T03:41:55.322Z,19.07
2023-05-05T03:44:30.519Z,19.06
2023-05-05T03:47:02.872Z,19.06
2023-05-05T03:49:38.053Z,19.05
2023-05-05T03:52:11.418Z,19.06
2023-05-05T03:54:46.211Z,19.04
2023-05-05T03:57:18.628Z,19.03
2023-05-05T03:59:51.218Z,19.03
2023-05-05T04:02:23.998Z,19.03
2023-05-05T04:04:56.513Z,19.03
2023-05-05T04:07:28.901Z,19.03
2023-05-05T04:10:01.483Z,19.02
2023-05-05T04:12:34.117Z,19.01
2023-05-05T04:15:07.181Z,19.02
2023-05-05T04:17:40.264Z,19.01
2023-05-05T04:20:13.213Z,19.00
2023-05-05T04:22:46.523Z,19.01
2023-05-05T04:25:19.951Z,18.99
2023-05-05T04:27:53.857Z,18.98
2023-05-05T04:30:26.756Z,18.99
2023-05-05T04:32:59.227Z,18.98
2023-05-05T04:35:31.891Z,18.98
2023-05-05T04:38:04.329Z,18.98
2023-05-05T04:40:41.368Z,18.97
2023-05-05T04:43:15.377Z,18.96
2023-05-05T04:45:57.076Z,18.96
2023-05-05T04:48:34.420Z,18.96
2023-05-05T04:51:07.247Z,18.96
2023-05-05T04:53:40.303Z,18.96
2023-05-05T04:56:14.209Z,18.95
2023-05-05T04:58:46.543Z,18.95
2023-05-05T05:01:19.852Z,18.94
2023-05-05T05:03:52.450Z,18.94
2023-05-05T05:06:24.811Z,18.94
2023-05-05T05:08:58.519Z,18.95
2023-05-05T05:11:30.927Z,18.94
2023-05-05T05:14:03.304Z,18.94
2023-05-05T05:16:35.780Z,18.94
2023-05-05T05:19:08.128Z,18.93
2023-05-05T05:21:40.804Z,18.94
2023-05-05T05:24:13.345Z,18.95
2023-05-05T05:26:45.884Z,18.94
2023-05-05T05:29:20.324Z,18.94
2023-05-05T05:31:53.590Z,18.94
2023-05-05T05:34:26.574Z,18.93
2023-05-05T05:36:59.063Z,18.94
2023-05-05T05:39:32.529Z,18.93
2023-05-05T05:42:05.313Z,18.93
2023-05-05T05:44:38.408Z,18.93
2023-05-05T05:47:11.145Z,18.93
2023-05-05T05:49:44.095Z,18.93
2023-05-05T05:52:16.882Z,18.94
2023-05-05T05:54:49.246Z,18.95
2023-05-05T05:57:24.600Z,18.95
2023-05-05T05:59:59.233Z,18.95
2023-05-05T06:02:34.471Z,18.96
2023-05-05T06:05:07.470Z,18.97
2023-05-05T06:07:40.091Z,18.99
2023-05-05T06:10:26.590Z,19.01
2023-05-05T06:13:05.316Z,19.01
2023-05-05T06:15:40.020Z,19.03
2023-05-05T06:18:12.985Z,19.05
2023-05-05T06:20:45.488Z,19.05
2023-05-05T06:23:20.253Z,19.07
2023-05-05T06:25:58.156Z,19.08
2023-05-05T06:28:30.522Z,19.09
2023-05-05T06:31:02.924Z,19.11
2023-05-05T06:33:35.381Z,19.11
2023-05-05T06:36:07.962Z,19.12
2023-05-05T06:38:40.393Z,19.13
2023-05-05T06:41:12.934Z,19.13
2023-05-05T06:43:45.507Z,19.13
2023-05-05T06:46:19.405Z,19.14
2023-05-05T06:48:52.229Z,19.14
2023-05-05T06:51:24.740Z,19.15
2023-05-05T06:53:58.305Z,19.16
2023-05-05T06:56:31.359Z,19.16
2023-05-05T06:59:03.764Z,19.17
2023-05-05T07:01:36.082Z,19.20
2023-05-05T07:04:08.581Z,19.20
2023-05-05T07:06:40.917Z,19.22
2023-05-05T07:09:14.775Z,19.22
2023-05-05T07:11:47.984Z,19.21
2023-05-05T07:14:22.072Z,19.23
2023-05-05T07:16:56.621Z,19.24
2023-05-05T07:19:29.321Z,19.25
2023-05-05T07:22:01.908Z,19.26
2023-05-05T07:24:34.390Z,19.27
2023-05-05T07:27:08.280Z,19.27
2023-05-05T07:29:40.754Z,19.27
2023-05-05T07:32:13.656Z,19.28
2023-05-05T07:34:46.197Z,19.29
2023-05-05T07:37:18.759Z,19.30
2023-05-05T07:39:51.080Z,19.31
2023-05-05T07:42:23.687Z,19.31
2023-05-05T07:44:56.095Z,19.31
2023-05-05T07:47:29.691Z,19.32
2023-05-05T07:50:02.406Z,19.31
2023-05-05T07:52:46.595Z,19.32
2023-05-05T07:55:22.823Z,19.32
2023-05-05T07:57:55.647Z,19.32
2023-05-05T08:00:28.076Z,19.33
2023-05-05T08:03:01.660Z,19.33
2023-05-05T08:05:34.119Z,19.34
2023-05-05T08:08:07.167Z,19.35
2023-05-05T08:10:39.588Z,19.35
2023-05-05T08:13:11.995Z,19.36
2023-05-05T08:15:45.236Z,19.36
2023-05-05T08:18:17.752Z,19.34
2023-05-05T08:20:50.541Z,19.35
2023-05-05T08:23:23.219Z,19.33
2023-05-05T08:25:57.144Z,19.34
2023-05-05T08:28:30.134Z,19.32
2023-05-05T08:31:06.762Z,19.33
2023-05-05T08:33:39.266Z,19.34
2023-05-05T08:36:11.688Z,19.34
2023-05-05T08:38:44.007Z,19.37
2023-05-05T08:41:18.895Z,19.38
2023-05-05T08:43:51.330Z,19.39
2023-05-05T08:46:26.871Z,19.41
2023-05-05T08:49:00.004Z,19.43
2023-05-05T08:51:41.390Z,19.45
2023-05-05T08:54:27.317Z,19.46
2023-05-05T08:57:04.720Z,19.48
2023-05-05T08:59:38.559Z,19.50
2023-05-05T09:02:12.336Z,19.51
2023-05-05T09:04:44.973Z,19.51
2023-05-05T09:07:17.783Z,19.53
2023-05-05T09:09:50.571Z,19.55
2023-05-05T09:12:23.441Z,19.56
2023-05-05T09:14:57.280Z,19.57
2023-05-05T09:17:31.714Z,19.58
2023-05-05T09:20:08.527Z,19.60
2023-05-05T09:22:44.318Z,19.60
2023-05-05T09:25:18.332Z,19.61
2023-05-05T09:27:50.856Z,19.63
2023-05-05T09:30:26.076Z,19.62
2023-05-05T09:32:59.893Z,19.63
2023-05-05T09:35:52.635Z,19.65
2023-05-05T09:38:25.603Z,19.67
2023-05-05T09:40:58.026Z,19.68
2023-05-05T09:43:30.430Z,19.69
2023-05-05T09:46:07.811Z,19.70
2023-05-05T09:48:40.377Z,19.71
2023-05-05T09:51:12.773Z,19.73
2023-05-05T09:53:45.139Z,19.76
2023-05-05T09:56:18.763Z,19.76
2023-05-05T09:59:07.714Z,19.77
2023-05-05T10:01:43.723Z,19.77
2023-05-05T10:04:28.189Z,19.78
2023-05-05T10:07:01.162Z,19.77
2023-05-05T10:09:36.442Z,19.78
2023-05-05T10:12:08.892Z,19.78
2023-05-05T10:14:41.915Z,19.78
2023-05-05T10:17:15.031Z,19.78
2023-05-05T10:19:48.141Z,19.78
2023-05-05T10:22:22.942Z,19.78
2023-05-05T10:25:09.685Z,19.77
2023-05-05T10:27:50.733Z,19.78
2023-05-05T10:30:25.995Z,19.77
2023-05-05T10:33:31.484Z,19.77
2023-05-05T10:36:06.732Z,19.79
2023-05-05T10:38:44.084Z,19.79
2023-05-05T10:41:19.266Z,19.81
2023-05-05T10:44:05.618Z,19.83
2023-05-05T10:46:42.520Z,19.83
2023-05-05T10:49:24.553Z,19.85
2023-05-05T10:52:23.642Z,19.88
2023-05-05T10:55:15.697Z,19.88
2023-05-05T10:57:53.699Z,19.88
2023-05-05T11:00:38.117Z,19.92
2023-05-05T11:03:16.693Z,19.92
2023-05-05T11:06:04.890Z,19.94
2023-05-05T11:08:41.796Z,19.95
2023-05-05T11:11:14.276Z,19.94
2023-05-05T11:13:47.383Z,19.94
2023-05-05T11:16:41.899Z,19.94
2023-05-05T11:19:43.960Z,19.94
2023-05-05T11:22:16.696Z,19.92
2023-05-05T11:24:49.180Z,19.91
2023-05-05T11:27:22.568Z,19.93
2023-05-05T11:30:08.668Z,19.91
2023-05-05T11:32:41.327Z,19.89
2023-05-05T11:35:15.525Z,19.90
2023-05-05T11:38:04.871Z,19.92
2023-05-05T11:40:41.494Z,19.91
2023-05-05T11:43:19.133Z,19.91
2023-05-05T11:46:13.476Z,19.88
2023-05-05T11:48:46.524Z,19.85
2023-05-05T11:51:19.037Z,19.83
2023-05-05T11:53:53.358Z,19.84
2023-05-05T11:56:25.964Z,19.83
2023-05-05T11:59:10.020Z,19.81
2023-05-05T12:01:42.873Z,19.80
2023-05-05T12:04:16.211Z,19.80
2023-05-05T12:06:49.144Z,19.81
2023-05-05T12:09:22.853Z,19.82
2023-05-05T12:11:58.714Z,19.83
2023-05-05T12:14:31.422Z,19.83
2023-05-05T12:17:07.808Z,19.83
2023-05-05T12:19:48.028Z,19.83
2023-05-05T12:22:21.515Z,19.85
2023-05-05T12:25:05.613Z,19.85
2023-05-05T12:27:38.792Z,19.88
2023-05-05T12:30:16.773Z,19.91
2023-05-05T12:32:50.283Z,19.94
2023-05-05T12:35:22.784Z,19.96
2023-05-05T12:37:55.437Z,19.97
2023-05-05T12:40:48.221Z,19.99
2023-05-05T12:43:31.879Z,20.00
2023-05-05T12:46:12.682Z,20.01
2023-05-05T12:48:48.345Z,20.01
2023-05-05T12:51:23.395Z,20.02
2023-05-05T12:54:11.622Z,20.06
2023-05-05T12:56:45.792Z,20.09
2023-05-05T12:59:21.134Z,20.12
2023-05-05T13:02:01.529Z,20.16
2023-05-05T13:04:34.549Z,20.18
2023-05-05T13:07:12.558Z,20.21
2023-05-05T13:09:45.078Z,20.23
2023-05-05T13:12:18.404Z,20.25
2023-05-05T13:14:50.820Z,20.27
2023-05-05T13:17:23.373Z,20.31
2023-05-05T13:19:56.006Z,20.32
2023-05-05T13:22:32.358Z,20.35
2023-05-05T13:25:05.210Z,20.37
2023-05-05T13:27:37.940Z,20.39
2023-05-05T13:30:10.681Z,20.41
2023-05-05T13:32:43.206Z,20.43
2023-05-05T13:35:16.514Z,20.44
2023-05-05T13:37:49.061Z,20.49
2023-05-05T13:40:22.284Z,20.52
2023-05-05T13:42:56.200Z,20.56
2023-05-05T13:45:28.615Z,20.63
2023-05-05T13:48:01.086Z,20.69
2023-05-05T13:50:33.566Z,20.72
2023-05-05T13:53:05.885Z,20.87
2023-05-05T13:55:38.315Z,21.12
2023-05-05T13:58:10.869Z,21.41
2023-05-05T14:00:43.186Z,21.69
2023-05-05T14:03:15.542Z,21.93
2023-05-05T14:05:47.828Z,22.17
2023-05-05T14:08:20.135Z,22.30
2023-05-05T14:10:53.452Z,22.39
2023-05-05T14:13:25.723Z,22.46
2023-05-05T14:15:58.517Z,22.56
2023-05-05T14:18:30.900Z,22.63
2023-05-05T14:21:04.778Z,22.68
2023-05-05T14:23:37.097Z,22.69
2023-05-05T14:26:09.660Z,22.66
2023-05-05T14:28:42.362Z,22.59
2023-05-05T14:31:15.133Z,22.48
2023-05-05T14:33:47.494Z,22.33
2023-05-05T14:36:19.897Z,22.19
2023-05-05T14:38:52.791Z,22.03
2023-05-05T14:41:25.133Z,21.89
2023-05-05T14:43:57.451Z,21.77
2023-05-05T14:46:31.274Z,21.66
2023-05-05T14:49:03.877Z,21.56
2023-05-05T14:51:36.278Z,21.49
2023-05-05T14:54:20.453Z,21.43
2023-05-05T14:57:06.871Z,21.41
2023-05-05T14:59:39.439Z,21.50
2023-05-05T15:02:20.691Z,21.65
2023-05-05T15:04:53.968Z,21.73
2023-05-05T15:07:29.272Z,21.77
2023-05-05T15:10:02.063Z,21.72
2023-05-05T15:12:34.577Z,21.67
2023-05-05T15:15:08.780Z,21.65
2023-05-05T15:17:41.796Z,21.65
2023-05-05T15:20:14.335Z,21.63
2023-05-05T15:22:49.561Z,21.61
2023-05-05T15:25:22.462Z,21.59
2023-05-05T15:27:54.761Z,21.62
2023-05-05T15:30:27.704Z,21.73
2023-05-05T15:33:00.699Z,21.88
2023-05-05T15:35:33.392Z,22.02
2023-05-05T15:38:07.318Z,22.10
2023-05-05T15:40:39.975Z,22.22
2023-05-05T15:43:12.782Z,22.32
2023-05-05T15:45:45.927Z,22.34
2023-05-05T15:48:18.260Z,22.30
2023-05-05T15:50:56.324Z,22.23
2023-05-05T15:53:30.385Z,22.18
2023-05-05T15:56:02.809Z,22.12
2023-05-05T15:58:36.739Z,22.06
2023-05-05T16:01:09.160Z,22.08
2023-05-05T16:03:41.784Z,22.18
2023-05-05T16:06:14.981Z,22.24
2023-05-05T16:08:49.024Z,22.24
2023-05-05T16:11:22.509Z,22.19
2023-05-05T16:13:55.015Z,22.10
2023-05-05T16:16:27.311Z,22.03
2023-05-05T16:18:59.614Z,21.97
2023-05-05T16:21:33.379Z,21.92
2023-05-05T16:24:06.120Z,21.91
2023-05-05T16:26:38.719Z,21.87
2023-05-05T16:29:11.892Z,21.84
2023-05-05T16:31:44.515Z,21.78
2023-05-05T16:34:17.183Z,21.73
2023-05-05T16:36:49.929Z,21.69
2023-05-05T16:39:22.450Z,21.67
2023-05-05T16:41:54.766Z,21.72
2023-05-05T16:44:27.175Z,21.77
2023-05-05T16:46:59.549Z,21.78
2023-05-05T16:49:31.891Z,21.79
2023-05-05T16:52:04.364Z,21.78
2023-05-05T16:54:36.746Z,21.81
2023-05-05T16:57:09.859Z,21.83
2023-05-05T16:59:42.254Z,21.85
2023-05-05T17:02:14.570Z,21.86
2023-05-05T17:04:47.103Z,21.86
2023-05-05T17:07:21.111Z,21.85
2023-05-05T17:09:53.842Z,21.84
2023-05-05T17:12:26.887Z,21.83
2023-05-05T17:14:59.879Z,21.80
2023-05-05T17:17:32.659Z,21.78
2023-05-05T17:20:05.837Z,21.79
2023-05-05T17:22:38.100Z,21.81
2023-05-05T17:25:10.773Z,21.83
2023-05-05T17:27:43.471Z,21.87
2023-05-05T17:30:16.022Z,21.92
2023-05-05T17:32:48.834Z,21.98
2023-05-05T17:35:21.441Z,22.03
2023-05-05T17:37:54.134Z,22.06
2023-05-05T17:40:26.612Z,22.08
2023-05-05T17:42:59.252Z,22.10
2023-05-05T17:45:31.803Z,22.07
2023-05-05T17:48:04.365Z,22.07
2023-05-05T17:50:36.834Z,22.08
2023-05-05T17:53:11.201Z,22.12
2023-05-05T17:55:45.953Z,22.14
2023-05-05T17:58:18.371Z,22.18
2023-05-05T18:00:51.003Z,22.20
2023-05-05T18:03:23.981Z,22.23
2023-05-05T18:05:56.359Z,22.25
2023-05-05T18:08:28.558Z,22.22
2023-05-05T18:11:01.880Z,22.19
2023-05-05T18:13:34.202Z,22.13
2023-05-05T18:16:06.934Z,22.08
2023-05-05T18:21:12.598Z,22.00
2023-05-05T18:23:46.016Z,21.98
2023-05-05T18:26:18.540Z,21.92
2023-05-05T18:28:50.848Z,21.89
2023-05-05T18:31:23.172Z,21.84
2023-05-05T18:33:56.181Z,21.77
2023-05-05T18:36:28.723Z,21.71
2023-05-05T18:39:01.892Z,21.66
2023-05-05T18:41:35.733Z,21.61
2023-05-05T18:44:08.214Z,21.56
2023-05-05T18:46:43.183Z,21.52
2023-05-05T18:49:15.601Z,21.49
2023-05-05T18:51:47.945Z,21.46
2023-05-05T18:54:21.986Z,21.43
2023-05-05T18:56:54.568Z,21.40
2023-05-05T18:59:27.374Z,21.36
2023-05-05T19:01:59.772Z,21.35
2023-05-05T19:04:33.009Z,21.33
2023-05-05T19:07:05.383Z,21.29
2023-05-05T19:09:37.825Z,21.25
2023-05-05T19:12:11.264Z,21.23
2023-05-05T19:14:43.651Z,21.17
2023-05-05T19:17:16.424Z,21.16
2023-05-05T19:19:48.986Z,21.14
2023-05-05T19:22:23.580Z,21.10
2023-05-05T19:24:56.191Z,21.06
2023-05-05T19:27:28.952Z,21.05
2023-05-05T19:30:02.181Z,21.03
2023-05-05T19:32:35.051Z,21.00
2023-05-05T19:35:10.754Z,20.97
2023-05-05T19:37:44.684Z,20.95
2023-05-05T19:40:17.609Z,20.93
2023-05-05T19:42:50.696Z,20.91
2023-05-05T19:45:23.562Z,20.90
2023-05-05T19:47:56.846Z,20.87
2023-05-05T19:50:30.839Z,20.86
2023-05-05T19:53:05.311Z,20.84
2023-05-05T19:55:38.353Z,20.83
2023-05-05T19:58:10.911Z,20.81
2023-05-05T20:00:43.327Z,20.80
2023-05-05T20:03:16.440Z,20.79
2023-05-05T20:05:49.102Z,20.77
2023-05-05T20:08:22.328Z,20.76
2023-05-05T20:10:58.052Z,20.76
2023-05-05T20:13:30.489Z,20.76
2023-05-05T20:16:05.068Z,20.75
2023-05-05T20:18:37.713Z,20.75
2023-05-05T20:21:10.295Z,20.73
2023-05-05T20:23:44.250Z,20.73
2023-05-05T20:26:17.088Z,20.71
2023-05-05T20:28:49.899Z,20.72
2023-05-05T20:31:23.066Z,20.71
2023-05-05T20:33:55.465Z,20.72
2023-05-05T20:36:27.933Z,20.69
2023-05-05T20:39:00.468Z,20.69
2023-05-05T20:41:32.892Z,20.69
2023-05-05T20:44:05.351Z,20.69
2023-05-05T20:46:37.791Z,20.68
2023-05-05T20:49:11.230Z,20.68
2023-05-05T20:51:46.930Z,20.68
2023-05-05T20:54:19.363Z,20.68
2023-05-05T20:56:53.206Z,20.68
2023-05-05T20:59:28.045Z,20.68
2023-05-05T21:02:00.576Z,20.69
2023-05-05T21:04:33.227Z,20.69
2023-05-05T21:07:05.667Z,20.70
2023-05-05T21:09:38.069Z,20.70
2023-05-05T21:12:10.330Z,20.70
2023-05-05T21:14:45.063Z,20.70
2023-05-05T21:17:17.595Z,20.70
2023-05-05T21:19:51.176Z,20.70
2023-05-05T21:22:23.790Z,20.71
2023-05-05T21:25:12.053Z,20.70
2023-05-05T21:27:44.964Z,20.70
2023-05-05T21:30:17.735Z,20.69
2023-05-05T21:32:51.388Z,20.69
2023-05-05T21:35:23.975Z,20.69
2023-05-05T21:37:56.356Z,20.68
2023-05-05T21:40:28.757Z,20.68
2023-05-05T21:43:01.714Z,20.69
2023-05-05T21:45:34.075Z,20.67
2023-05-05T21:48:06.835Z,20.66
2023-05-05T21:50:39.278Z,20.66
2023-05-05T21:53:11.935Z,20.65
2023-05-05T21:55:44.733Z,20.66
2023-05-05T21:58:17.498Z,20.65
2023-05-05T22:00:50.057Z,20.65
2023-05-05T22:03:22.695Z,20.63
2023-05-05T22:05:55.748Z,20.63
2023-05-05T22:08:28.189Z,20.63
2023-05-05T22:11:00.645Z,20.63
2023-05-05T22:13:33.559Z,20.63
2023-05-05T22:16:09.824Z,20.61
2023-05-05T22:18:42.573Z,20.62
2023-05-05T22:21:16.217Z,20.60
2023-05-05T22:23:48.661Z,20.59
2023-05-05T22:26:20.990Z,20.59
2023-05-05T22:28:53.482Z,20.58
2023-05-05T22:31:26.221Z,20.59
2023-05-05T22:33:58.728Z,20.57
2023-05-05T22:36:31.869Z,20.57
2023-05-05T22:39:05.573Z,20.56
2023-05-05T22:41:38.441Z,20.56
2023-05-05T22:44:11.860Z,20.55
2023-05-05T22:46:44.413Z,20.56
2023-05-05T22:49:16.878Z,20.55
2023-05-05T22:51:51.692Z,20.55
2023-05-05T22:54:24.032Z,20.55
2023-05-05T22:56:56.429Z,20.54
2023-05-05T22:59:28.964Z,20.53
2023-05-05T23:02:01.336Z,20.53
2023-05-05T23:04:33.726Z,20.52
2023-05-05T23:07:06.127Z,20.51
2023-05-05T23:09:38.700Z,20.50
2023-05-05T23:12:11.027Z,20.50
2023-05-05T23:14:44.139Z,20.49
2023-05-05T23:17:16.602Z,20.50
2023-05-05T23:19:50.468Z,20.48
2023-05-05T23:22:23.129Z,20.48
2023-05-05T23:24:56.028Z,20.47
2023-05-05T23:27:31.582Z,20.45
2023-05-05T23:30:04.369Z,20.46
2023-05-05T23:32:36.768Z,20.46
2023-05-05T23:35:09.785Z,20.45
2023-05-05T23:37:42.234Z,20.44
2023-05-05T23:40:14.535Z,20.40
2023-05-05T23:42:46.921Z,20.43
2023-05-05T23:45:19.731Z,20.42
2023-05-05T23:47:52.464Z,20.41
2023-05-05T23:50:25.864Z,20.40
2023-05-05T23:52:58.281Z,20.39
2023-05-05T23:55:30.897Z,20.40
2023-05-05T23:58:03.327Z,20.39
